sensor_id;sensor_type;location;lat;lon;timestamp;P1;durP1;ratioP1;P2;durP2;ratioP2
69502;SDS011;56704;54.242;12.442;2023-07-29T01:16:07;6.10;;;3.43;;
69502;SDS011;56704;54.242;12.442;2023-07-29T01:18:52;5.22;;;2.90;;
69502;SDS011;56704;54.242;12.442;2023-07-29T03:16:11;6.53;;;3.60;;
69502;SDS011;56704;54.242;12.442;2023-07-29T05:19:16;7.23;;;3.10;;
69502;SDS011;56704;54.242;12.442;2023-07-29T05:22:00;5.47;;;3.38;;
69502;SDS011;56704;54.242;12.442;2023-07-29T07:04:31;6.35;;;3.35;;
69502;SDS011;56704;54.242;12.442;2023-07-29T08:46:42;6.43;;;3.78;;
69502;SDS011;56704;54.242;12.442;2023-07-29T08:49:21;11.63;;;7.65;;
69502;SDS011;56704;54.242;12.442;2023-07-29T08:52:07;6.03;;;3.42;;
69502;SDS011;56704;54.242;12.442;2023-07-29T08:54:34;6.73;;;4.00;;
69502;SDS011;56704;54.242;12.442;2023-07-29T08:57:02;6.47;;;3.63;;
69502;SDS011;56704;54.242;12.442;2023-07-29T08:59:29;7.32;;;4.28;;
69502;SDS011;56704;54.242;12.442;2023-07-29T09:01:58;6.53;;;2.95;;
69502;SDS011;56704;54.242;12.442;2023-07-29T09:04:25;10.18;;;4.20;;
69502;SDS011;56704;54.242;12.442;2023-07-29T09:06:53;6.17;;;3.57;;
69502;SDS011;56704;54.242;12.442;2023-07-29T09:09:22;7.10;;;3.92;;
69502;SDS011;56704;54.242;12.442;2023-07-29T09:11:50;7.15;;;3.65;;
69502;SDS011;56704;54.242;12.442;2023-07-29T09:14:17;5.18;;;3.33;;
69502;SDS011;56704;54.242;12.442;2023-07-29T09:16:44;7.18;;;3.45;;
69502;SDS011;56704;54.242;12.442;2023-07-29T09:19:13;6.43;;;3.30;;
69502;SDS011;56704;54.242;12.442;2023-07-29T09:21:40;4.90;;;3.03;;
69502;SDS011;56704;54.242;12.442;2023-07-29T09:24:08;5.53;;;3.30;;
69502;SDS011;56704;54.242;12.442;2023-07-29T09:26:41;6.05;;;3.92;;
69502;SDS011;56704;54.242;12.442;2023-07-29T09:29:15;8.68;;;4.00;;
69502;SDS011;56704;54.242;12.442;2023-07-29T09:31:42;5.43;;;3.17;;
69502;SDS011;56704;54.242;12.442;2023-07-29T09:34:09;6.97;;;3.60;;
69502;SDS011;56704;54.242;12.442;2023-07-29T09:36:43;5.85;;;3.42;;
69502;SDS011;56704;54.242;12.442;2023-07-29T09:39:11;6.35;;;3.75;;
69502;SDS011;56704;54.242;12.442;2023-07-29T09:41:39;6.45;;;3.92;;
69502;SDS011;56704;54.242;12.442;2023-07-29T09:44:06;5.37;;;3.20;;
69502;SDS011;56704;54.242;12.442;2023-07-29T09:46:34;7.22;;;4.32;;
69502;SDS011;56704;54.242;12.442;2023-07-29T09:49:02;6.68;;;4.40;;
69502;SDS011;56704;54.242;12.442;2023-07-29T09:51:29;6.55;;;3.95;;
69502;SDS011;56704;54.242;12.442;2023-07-29T09:53:58;6.65;;;3.97;;
69502;SDS011;56704;54.242;12.442;2023-07-29T09:56:29;9.30;;;4.73;;
69502;SDS011;56704;54.242;12.442;2023-07-29T09:58:56;7.50;;;4.47;;
69502;SDS011;56704;54.242;12.442;2023-07-29T10:01:23;7.80;;;4.43;;
69502;SDS011;56704;54.242;12.442;2023-07-29T10:03:50;6.22;;;4.40;;
69502;SDS011;56704;54.242;12.442;2023-07-29T10:06:21;8.23;;;4.88;;
69502;SDS011;56704;54.242;12.442;2023-07-29T10:08:50;6.03;;;4.13;;
69502;SDS011;56704;54.242;12.442;2023-07-29T10:11:29;7.55;;;3.55;;
69502;SDS011;56704;54.242;12.442;2023-07-29T10:13:56;6.00;;;3.25;;
69502;SDS011;56704;54.242;12.442;2023-07-29T10:16:24;5.07;;;3.45;;
69502;SDS011;56704;54.242;12.442;2023-07-29T10:18:52;7.30;;;4.80;;
69502;SDS011;56704;54.242;12.442;2023-07-29T10:21:20;8.00;;;4.13;;
69502;SDS011;56704;54.242;12.442;2023-07-29T10:23:48;6.95;;;4.47;;
69502;SDS011;56704;54.242;12.442;2023-07-29T10:26:16;6.65;;;4.53;;
69502;SDS011;56704;54.242;12.442;2023-07-29T10:28:47;5.43;;;3.53;;
69502;SDS011;56704;54.242;12.442;2023-07-29T10:31:15;6.72;;;4.38;;
69502;SDS011;56704;54.242;12.442;2023-07-29T10:33:43;6.23;;;4.23;;
69502;SDS011;56704;54.242;12.442;2023-07-29T10:36:10;6.50;;;4.05;;
69502;SDS011;56704;54.242;12.442;2023-07-29T10:38:38;6.25;;;4.43;;
69502;SDS011;56704;54.242;12.442;2023-07-29T10:41:05;6.05;;;3.95;;
69502;SDS011;56704;54.242;12.442;2023-07-29T10:43:33;8.02;;;4.30;;
69502;SDS011;56704;54.242;12.442;2023-07-29T10:46:15;6.17;;;4.10;;
69502;SDS011;56704;54.242;12.442;2023-07-29T10:48:52;6.72;;;4.45;;
69502;SDS011;56704;54.242;12.442;2023-07-29T10:51:22;7.28;;;4.78;;
69502;SDS011;56704;54.242;12.442;2023-07-29T10:53:48;6.45;;;4.13;;
69502;SDS011;56704;54.242;12.442;2023-07-29T10:56:24;7.47;;;4.03;;
69502;SDS011;56704;54.242;12.442;2023-07-29T10:58:53;6.97;;;4.37;;
69502;SDS011;56704;54.242;12.442;2023-07-29T11:01:27;6.10;;;4.30;;
69502;SDS011;56704;54.242;12.442;2023-07-29T11:09:51;5.28;;;3.30;;
69502;SDS011;56704;54.242;12.442;2023-07-29T11:12:34;6.60;;;4.03;;
69502;SDS011;56704;54.242;12.442;2023-07-29T11:15:03;5.20;;;3.97;;
69502;SDS011;56704;54.242;12.442;2023-07-29T11:17:35;6.13;;;4.22;;
69502;SDS011;56704;54.242;12.442;2023-07-29T11:20:03;6.07;;;3.67;;
69502;SDS011;56704;54.242;12.442;2023-07-29T11:22:47;10.52;;;8.25;;
69502;SDS011;56704;54.242;12.442;2023-07-29T11:25:26;10.23;;;8.33;;
69502;SDS011;56704;54.242;12.442;2023-07-29T11:27:59;12.73;;;8.18;;
69502;SDS011;56704;54.242;12.442;2023-07-29T11:30:29;12.82;;;8.82;;
69502;SDS011;56704;54.242;12.442;2023-07-29T11:32:58;10.55;;;7.15;;
69502;SDS011;56704;54.242;12.442;2023-07-29T11:35:25;13.38;;;8.52;;
69502;SDS011;56704;54.242;12.442;2023-07-29T11:37:53;14.00;;;9.10;;
69502;SDS011;56704;54.242;12.442;2023-07-29T11:40:22;13.30;;;9.40;;
69502;SDS011;56704;54.242;12.442;2023-07-29T11:42:50;12.27;;;8.95;;
69502;SDS011;56704;54.242;12.442;2023-07-29T11:45:18;11.05;;;7.75;;
69502;SDS011;56704;54.242;12.442;2023-07-29T11:47:45;14.00;;;8.85;;
69502;SDS011;56704;54.242;12.442;2023-07-29T11:50:14;11.60;;;8.27;;
69502;SDS011;56704;54.242;12.442;2023-07-29T11:52:42;12.32;;;8.13;;
69502;SDS011;56704;54.242;12.442;2023-07-29T11:55:09;11.55;;;7.45;;
69502;SDS011;56704;54.242;12.442;2023-07-29T11:57:37;11.15;;;7.22;;
69502;SDS011;56704;54.242;12.442;2023-07-29T12:00:05;10.10;;;7.03;;
69502;SDS011;56704;54.242;12.442;2023-07-29T12:02:35;9.87;;;7.00;;
69502;SDS011;56704;54.242;12.442;2023-07-29T12:05:03;9.00;;;6.55;;
69502;SDS011;56704;54.242;12.442;2023-07-29T12:07:32;9.65;;;7.15;;
69502;SDS011;56704;54.242;12.442;2023-07-29T12:09:59;8.93;;;5.78;;
69502;SDS011;56704;54.242;12.442;2023-07-29T12:12:28;7.88;;;4.72;;
69502;SDS011;56704;54.242;12.442;2023-07-29T12:14:56;7.67;;;3.40;;
69502;SDS011;56704;54.242;12.442;2023-07-29T12:17:23;1.42;;;0.50;;
69502;SDS011;56704;54.242;12.442;2023-07-29T12:19:53;1.00;;;0.38;;
69502;SDS011;56704;54.242;12.442;2023-07-29T12:22:20;0.40;;;0.10;;
69502;SDS011;56704;54.242;12.442;2023-07-29T12:24:51;0.38;;;0.10;;
69502;SDS011;56704;54.242;12.442;2023-07-29T12:27:24;0.50;;;0.40;;
69502;SDS011;56704;54.242;12.442;2023-07-29T12:29:56;0.20;;;0.00;;
69502;SDS011;56704;54.242;12.442;2023-07-29T12:41:40;7.67;;;3.40;;
69502;SDS011;56704;54.242;12.442;2023-07-29T15:58:24;7.00;;;3.97;;
69502;SDS011;56704;54.242;12.442;2023-07-29T16:01:13;7.72;;;4.03;;
69502;SDS011;56704;54.242;12.442;2023-07-29T16:03:40;9.48;;;4.70;;
69502;SDS011;56704;54.242;12.442;2023-07-29T16:06:07;10.38;;;5.38;;
69502;SDS011;56704;54.242;12.442;2023-07-29T16:08:35;8.38;;;5.40;;
69502;SDS011;56704;54.242;12.442;2023-07-29T16:11:20;8.57;;;5.07;;
69502;SDS011;56704;54.242;12.442;2023-07-29T16:16:52;10.65;;;6.07;;
69502;SDS011;56704;54.242;12.442;2023-07-29T16:19:22;8.07;;;4.70;;
69502;SDS011;56704;54.242;12.442;2023-07-29T16:21:50;10.00;;;5.60;;
69502;SDS011;56704;54.242;12.442;2023-07-29T16:24:16;7.17;;;4.67;;
69502;SDS011;56704;54.242;12.442;2023-07-29T16:26:43;8.32;;;4.63;;
69502;SDS011;56704;54.242;12.442;2023-07-29T16:29:10;8.00;;;4.75;;
69502;SDS011;56704;54.242;12.442;2023-07-29T16:31:37;8.20;;;4.82;;
69502;SDS011;56704;54.242;12.442;2023-07-29T16:34:06;6.50;;;3.47;;
69502;SDS011;56704;54.242;12.442;2023-07-29T16:36:34;6.10;;;3.57;;
69502;SDS011;56704;54.242;12.442;2023-07-29T16:39:06;6.00;;;3.42;;
69502;SDS011;56704;54.242;12.442;2023-07-29T16:41:33;6.15;;;2.95;;
69502;SDS011;56704;54.242;12.442;2023-07-29T16:44:00;5.60;;;3.10;;
69502;SDS011;56704;54.242;12.442;2023-07-29T16:46:27;6.15;;;2.72;;
69502;SDS011;56704;54.242;12.442;2023-07-29T16:48:55;5.40;;;2.90;;
69502;SDS011;56704;54.242;12.442;2023-07-29T16:54:27;6.10;;;3.05;;
69502;SDS011;56704;54.242;12.442;2023-07-29T16:57:08;5.03;;;2.63;;
69502;SDS011;56704;54.242;12.442;2023-07-29T16:59:58;5.25;;;2.85;;
69502;SDS011;56704;54.242;12.442;2023-07-29T17:02:25;5.30;;;2.67;;
69502;SDS011;56704;54.242;12.442;2023-07-29T17:05:04;4.82;;;2.70;;
69502;SDS011;56704;54.242;12.442;2023-07-29T17:07:49;5.65;;;2.85;;
69502;SDS011;56704;54.242;12.442;2023-07-29T17:10:28;5.38;;;3.03;;
69502;SDS011;56704;54.242;12.442;2023-07-29T17:12:58;5.45;;;2.88;;
69502;SDS011;56704;54.242;12.442;2023-07-29T17:15:30;5.80;;;2.87;;
69502;SDS011;56704;54.242;12.442;2023-07-29T17:18:00;5.60;;;3.20;;
69502;SDS011;56704;54.242;12.442;2023-07-29T17:38:37;4.95;;;2.47;;
69502;SDS011;56704;54.242;12.442;2023-07-29T17:41:27;5.15;;;2.78;;
69502;SDS011;56704;54.242;12.442;2023-07-29T17:47:27;7.05;;;2.95;;
69502;SDS011;56704;54.242;12.442;2023-07-29T17:50:15;6.15;;;3.40;;
69502;SDS011;56704;54.242;12.442;2023-07-29T17:55:36;6.25;;;3.75;;
69502;SDS011;56704;54.242;12.442;2023-07-29T17:58:23;6.27;;;3.90;;
69502;SDS011;56704;54.242;12.442;2023-07-29T18:03:38;7.13;;;3.67;;
69502;SDS011;56704;54.242;12.442;2023-07-29T18:06:13;5.32;;;3.53;;
69502;SDS011;56704;54.242;12.442;2023-07-29T18:08:55;5.90;;;3.92;;
69502;SDS011;56704;54.242;12.442;2023-07-29T18:11:26;5.97;;;3.90;;
69502;SDS011;56704;54.242;12.442;2023-07-29T18:13:56;8.30;;;3.72;;
69502;SDS011;56704;54.242;12.442;2023-07-29T18:16:28;6.82;;;4.45;;
69502;SDS011;56704;54.242;12.442;2023-07-29T18:19:07;6.45;;;3.92;;
69502;SDS011;56704;54.242;12.442;2023-07-29T18:21:38;9.15;;;4.45;;
69502;SDS011;56704;54.242;12.442;2023-07-29T18:24:25;7.47;;;3.80;;
69502;SDS011;56704;54.242;12.442;2023-07-29T18:27:06;7.18;;;4.50;;
69502;SDS011;56704;54.242;12.442;2023-07-29T18:29:38;7.50;;;5.00;;
69502;SDS011;56704;54.242;12.442;2023-07-29T18:32:23;9.63;;;7.07;;
69502;SDS011;56704;54.242;12.442;2023-07-29T18:34:50;8.75;;;5.82;;
69502;SDS011;56704;54.242;12.442;2023-07-29T18:37:25;6.97;;;4.50;;
69502;SDS011;56704;54.242;12.442;2023-07-29T18:39:52;6.53;;;4.10;;
69502;SDS011;56704;54.242;12.442;2023-07-29T18:42:25;7.20;;;4.20;;
69502;SDS011;56704;54.242;12.442;2023-07-29T18:44:57;7.53;;;4.18;;
69502;SDS011;56704;54.242;12.442;2023-07-29T18:47:58;8.88;;;4.05;;
69502;SDS011;56704;54.242;12.442;2023-07-29T18:55:29;6.75;;;4.05;;
69502;SDS011;56704;54.242;12.442;2023-07-29T18:58:06;6.53;;;4.10;;
69502;SDS011;56704;54.242;12.442;2023-07-29T19:00:33;6.20;;;3.70;;
69502;SDS011;56704;54.242;12.442;2023-07-29T19:03:16;6.47;;;3.70;;
69502;SDS011;56704;54.242;12.442;2023-07-29T19:05:59;8.25;;;4.00;;
69502;SDS011;56704;54.242;12.442;2023-07-29T19:09:07;7.22;;;4.55;;
69502;SDS011;56704;54.242;12.442;2023-07-29T19:12:37;6.32;;;4.03;;
69502;SDS011;56704;54.242;12.442;2023-07-29T19:14:31;6.75;;;4.38;;
69502;SDS011;56704;54.242;12.442;2023-07-29T19:17:15;8.17;;;4.20;;
69502;SDS011;56704;54.242;12.442;2023-07-29T19:20:02;8.07;;;4.65;;
69502;SDS011;56704;54.242;12.442;2023-07-29T19:45:17;9.80;;;5.85;;
69502;SDS011;56704;54.242;12.442;2023-07-29T21:09:35;11.43;;;7.10;;
69502;SDS011;56704;54.242;12.442;2023-07-29T21:12:02;11.67;;;6.93;;
69502;SDS011;56704;54.242;12.442;2023-07-29T21:14:45;12.88;;;7.57;;
69502;SDS011;56704;54.242;12.442;2023-07-29T21:17:13;11.32;;;7.10;;
69502;SDS011;56704;54.242;12.442;2023-07-29T21:19:40;11.38;;;6.95;;
69502;SDS011;56704;54.242;12.442;2023-07-29T21:22:07;12.27;;;7.20;;
69502;SDS011;56704;54.242;12.442;2023-07-29T21:24:36;11.27;;;6.00;;
69502;SDS011;56704;54.242;12.442;2023-07-29T21:27:03;9.20;;;6.55;;
69502;SDS011;56704;54.242;12.442;2023-07-29T21:29:31;11.18;;;6.53;;
69502;SDS011;56704;54.242;12.442;2023-07-29T21:31:58;11.43;;;6.07;;
69502;SDS011;56704;54.242;12.442;2023-07-29T21:34:25;13.80;;;6.60;;
69502;SDS011;56704;54.242;12.442;2023-07-29T21:36:52;10.47;;;6.00;;
69502;SDS011;56704;54.242;12.442;2023-07-29T21:39:19;10.25;;;6.20;;
69502;SDS011;56704;54.242;12.442;2023-07-29T21:41:48;11.88;;;6.63;;
69502;SDS011;56704;54.242;12.442;2023-07-29T21:44:15;11.27;;;6.03;;
69502;SDS011;56704;54.242;12.442;2023-07-29T21:46:42;10.18;;;4.95;;
69502;SDS011;56704;54.242;12.442;2023-07-29T21:49:10;11.37;;;5.70;;
69502;SDS011;56704;54.242;12.442;2023-07-29T21:51:37;11.65;;;6.50;;
69502;SDS011;56704;54.242;12.442;2023-07-29T21:54:04;12.32;;;6.25;;
69502;SDS011;56704;54.242;12.442;2023-07-29T21:56:31;11.57;;;6.07;;
69502;SDS011;56704;54.242;12.442;2023-07-29T21:59:00;10.25;;;6.00;;
69502;SDS011;56704;54.242;12.442;2023-07-29T22:01:27;11.40;;;6.03;;
69502;SDS011;56704;54.242;12.442;2023-07-29T22:03:54;10.27;;;5.65;;
69502;SDS011;56704;54.242;12.442;2023-07-29T22:06:22;8.43;;;5.22;;
69502;SDS011;56704;54.242;12.442;2023-07-29T22:08:50;9.35;;;4.68;;
69502;SDS011;56704;54.242;12.442;2023-07-29T22:11:17;10.55;;;4.95;;
69502;SDS011;56704;54.242;12.442;2023-07-29T22:13:45;9.80;;;4.43;;
69502;SDS011;56704;54.242;12.442;2023-07-29T22:16:13;7.65;;;4.20;;
69502;SDS011;56704;54.242;12.442;2023-07-29T22:18:40;6.03;;;3.38;;
69502;SDS011;56704;54.242;12.442;2023-07-29T22:21:08;7.97;;;4.32;;
69502;SDS011;56704;54.242;12.442;2023-07-29T22:23:35;7.68;;;4.45;;
69502;SDS011;56704;54.242;12.442;2023-07-29T22:26:03;7.30;;;4.00;;
69502;SDS011;56704;54.242;12.442;2023-07-29T22:28:30;7.68;;;3.95;;
69502;SDS011;56704;54.242;12.442;2023-07-29T22:30:59;6.82;;;3.88;;
69502;SDS011;56704;54.242;12.442;2023-07-29T22:33:31;8.40;;;4.20;;
69502;SDS011;56704;54.242;12.442;2023-07-29T22:35:59;9.52;;;4.22;;
69502;SDS011;56704;54.242;12.442;2023-07-29T22:38:26;6.07;;;3.60;;
69502;SDS011;56704;54.242;12.442;2023-07-29T22:40:53;7.93;;;4.07;;
69502;SDS011;56704;54.242;12.442;2023-07-29T22:43:21;8.65;;;4.30;;
69502;SDS011;56704;54.242;12.442;2023-07-29T22:45:49;7.82;;;4.05;;
69502;SDS011;56704;54.242;12.442;2023-07-29T22:48:16;9.70;;;4.60;;
69502;SDS011;56704;54.242;12.442;2023-07-29T22:50:45;8.87;;;4.20;;
69502;SDS011;56704;54.242;12.442;2023-07-29T22:53:13;9.23;;;4.25;;
69502;SDS011;56704;54.242;12.442;2023-07-29T22:55:41;8.05;;;3.75;;
69502;SDS011;56704;54.242;12.442;2023-07-29T22:58:08;7.50;;;3.92;;
69502;SDS011;56704;54.242;12.442;2023-07-29T23:00:36;7.07;;;4.40;;
69502;SDS011;56704;54.242;12.442;2023-07-29T23:03:03;9.07;;;5.07;;
69502;SDS011;56704;54.242;12.442;2023-07-29T23:05:30;9.57;;;4.47;;
69502;SDS011;56704;54.242;12.442;2023-07-29T23:07:58;8.05;;;4.75;;
69502;SDS011;56704;54.242;12.442;2023-07-29T23:10:25;8.80;;;4.60;;
69502;SDS011;56704;54.242;12.442;2023-07-29T23:12:53;9.57;;;4.78;;
69502;SDS011;56704;54.242;12.442;2023-07-29T23:15:20;7.37;;;4.10;;
69502;SDS011;56704;54.242;12.442;2023-07-29T23:17:47;8.88;;;4.75;;
69502;SDS011;56704;54.242;12.442;2023-07-29T23:20:14;8.65;;;3.97;;
69502;SDS011;56704;54.242;12.442;2023-07-29T23:22:42;9.00;;;4.18;;
69502;SDS011;56704;54.242;12.442;2023-07-29T23:25:12;7.88;;;3.22;;
69502;SDS011;56704;54.242;12.442;2023-07-29T23:27:39;6.20;;;3.03;;
69502;SDS011;56704;54.242;12.442;2023-07-29T23:30:06;9.73;;;3.75;;
69502;SDS011;56704;54.242;12.442;2023-07-29T23:32:34;7.63;;;3.80;;
69502;SDS011;56704;54.242;12.442;2023-07-29T23:35:01;8.90;;;4.03;;
69502;SDS011;56704;54.242;12.442;2023-07-29T23:37:28;7.25;;;4.43;;
69502;SDS011;56704;54.242;12.442;2023-07-29T23:39:55;9.03;;;4.70;;
69502;SDS011;56704;54.242;12.442;2023-07-29T23:42:23;8.07;;;4.60;;
69502;SDS011;56704;54.242;12.442;2023-07-29T23:44:50;9.50;;;4.57;;
69502;SDS011;56704;54.242;12.442;2023-07-29T23:47:18;10.73;;;5.00;;
69502;SDS011;56704;54.242;12.442;2023-07-29T23:49:45;9.80;;;5.07;;
69502;SDS011;56704;54.242;12.442;2023-07-29T23:52:12;9.13;;;4.70;;
69502;SDS011;56704;54.242;12.442;2023-07-29T23:54:39;11.10;;;5.25;;
69502;SDS011;56704;54.242;12.442;2023-07-29T23:57:06;8.65;;;4.82;;
69502;SDS011;56704;54.242;12.442;2023-07-29T23:59:35;10.60;;;5.13;;
